This is the latest recevied weather packets stored in our database for station/object IW2NIA-3. If no packets are shown the sender has not sent any weather packets the latest 1 day(s).
| Time | Temp. | Humidity | Pressure | Rain* | Wind** | Luminosity | Snow |
|---|---|---|---|---|---|---|---|
| 1836274141 | 17.22° C | 93% | 1024.6 hPa | 0 mm | 0 m/s | - | - |
| 1836273984 | 17.78° C | 93% | 1024.7 hPa | 0 mm | 1.34 m/s, 35° | - | - |
| 1778054610 | 12.78° C | 97% | 1007.4 hPa | 1.52 mm | 1.79 m/s, 168° | - | - |
| 1778053705 | 13.33° C | 97% | 1007.4 hPa | 1.52 mm | 1.79 m/s, 130° | - | - |
| 1778052818 | 13.33° C | 97% | 1007.5 hPa | 1.52 mm | 4.47 m/s, 181° | - | - |
| 1778051912 | 13.33° C | 97% | 1007.4 hPa | 1.02 mm | 2.68 m/s, 161° | - | - |
| 1778051009 | 13.33° C | 97% | 1007.7 hPa | 0.51 mm | 2.24 m/s, 108° | - | - |
| 1778050125 | 12.78° C | 97% | 1007.7 hPa | 0 mm | 2.24 m/s, 173° | - | - |
| 1778049221 | 12.78° C | 97% | 1007.6 hPa | 0 mm | 1.79 m/s, 150° | - | - |
| 1778048310 | 12.78° C | 97% | 1007.5 hPa | 0.25 mm | 1.34 m/s, 220° | - | - |
| 1778047410 | 12.78° C | 97% | 1007.8 hPa | 0.51 mm | 2.24 m/s, 188° | - | - |
| 1778046526 | 12.78° C | 97% | 1007.7 hPa | 0.51 mm | 0.45 m/s, 111° | - | - |
| 1778045618 | 12.78° C | 97% | 1007.8 hPa | 0.51 mm | 3.13 m/s, 187° | - | - |
| 1778044708 | 12.78° C | 97% | 1007.7 hPa | 0.51 mm | 1.34 m/s, 174° | - | - |
| 1778043822 | 12.78° C | 97% | 1007.9 hPa | 0.51 mm | 1.34 m/s, 175° | - | - |
| 1778042920 | 12.78° C | 97% | 1008.2 hPa | 0.51 mm | 1.79 m/s, 194° | - | - |
| 1778042013 | 12.78° C | 97% | 1008.3 hPa | 0.51 mm | 1.79 m/s, 155° | - | - |
| 1778041112 | 12.78° C | 97% | 1008.4 hPa | 0.51 mm | 1.34 m/s, 194° | - | - |
| 1778040226 | 12.78° C | 97% | 1008.6 hPa | 0.25 mm | 2.24 m/s, 188° | - | - |
| 1778039315 | 12.78° C | 97% | 1008.5 hPa | 0.51 mm | 2.68 m/s, 180° | - | - |
| 1778038424 | 12.78° C | 97% | 1008.5 hPa | 0.76 mm | 0.89 m/s, 169° | - | - |
| 1778037524 | 12.78° C | 97% | 1008.6 hPa | 0.76 mm | 1.34 m/s, 205° | - | - |
| 1778036623 | 12.78° C | 97% | 1008.6 hPa | 1.02 mm | 1.34 m/s, 146° | - | - |
| 1778035719 | 12.78° C | 97% | 1009.2 hPa | 0.76 mm | 1.79 m/s, 195° | - | - |
| 1778034810 | 12.78° C | 97% | 1009.3 hPa | 0.76 mm | 1.79 m/s, 217° | - | - |
* Rain latest hour (hover to see other rain measurements)
** Current wind speed in m/s (hover to see current wind gust speed)